Gembloux, Belgium
Current Conditions -  °F | °C
As of 3:50 AM on Monday 24 Nov 2014 (Local Time) from EBCI Reporting Station
Broken Clouds Broken Clouds  
Wind Chill: 45°   Ceiling: 400
Heat Index: 48°   Visibility: 6mi
Dew Point: 46°   Wind: 7mph
Humidity: 93%   Direction: 320°NW
Pressure: 30.12"   Gusts: NA
Location:  50.56°N, 4.7°E
Report Text: EBCI 240250Z 32006KT 9999 BKN004 09/08 Q1020 NOSIG
Loading
Personal Weather Stations






























Interactive Weather Map New forecast layout! Learn more

10-Day Weather Forecast

Advertisements
Track Severe Weather on mobile